Ramsey, Illinois
Current Conditions -  °F | °C
As of 1:55 PM on Sunday 23 Nov 2014 (Local Time) from KTAZ Reporting Station
Moderate Rain Moderate Rain  
Wind Chill: 50°   Ceiling: 500
Heat Index: 50°   Visibility: 3mi
Dew Point: 48°   Wind: 14mph
Humidity: 94%   Direction: 140°SE
Pressure: 29.46"   Gusts: 21mph
Location:  39.14°N, 89.11°W
Report Text: KTAZ 231955Z AUTO 14012G18KT 3SM RA OVC005 10/09 A2946 RMK AO2 P0013
Loading
Personal Weather Stations






























Interactive Weather Map New forecast layout! Learn more

10-Day Weather Forecast

Advertisements
Track Severe Weather on mobile